sensor_id;sensor_type;location;lat;lon;timestamp;temperature;humidity
67893;DHT22;54688;52.376;16.744;2023-07-02T09:34:44;20.7;42
67893;DHT22;54688;52.376;16.744;2023-07-02T09:37:47;20.5;42.6
67893;DHT22;54688;52.376;16.744;2023-07-02T09:40:49;20.7;41.5
67893;DHT22;54688;52.376;16.744;2023-07-02T09:43:53;20.7;41.9
67893;DHT22;54688;52.376;16.744;2023-07-02T09:46:58;20.7;42.2
67893;DHT22;54688;52.376;16.744;2023-07-02T09:50:03;20.7;41.6
67893;DHT22;54688;52.376;16.744;2023-07-02T09:53:06;20.8;42.3
67893;DHT22;54688;52.376;16.744;2023-07-02T09:56:09;21;41.5
67893;DHT22;54688;52.376;16.744;2023-07-02T09:59:13;21.1;42
67893;DHT22;54688;52.376;16.744;2023-07-02T10:02:15;21.2;40.7
67893;DHT22;54688;52.376;16.744;2023-07-02T10:05:32;21.3;41.3
67893;DHT22;54688;52.376;16.744;2023-07-02T10:08:35;21.4;41.9
67893;DHT22;54688;52.376;16.744;2023-07-02T10:11:38;21.5;41.4
67893;DHT22;54688;52.376;16.744;2023-07-02T10:14:40;21.6;41.1
67893;DHT22;54688;52.376;16.744;2023-07-02T10:17:54;21.7;40.2
67893;DHT22;54688;52.376;16.744;2023-07-02T10:20:57;21.7;40.1
67893;DHT22;54688;52.376;16.744;2023-07-02T10:24:08;21.8;40.4
67893;DHT22;54688;52.376;16.744;2023-07-02T10:27:10;21.7;40.5
67893;DHT22;54688;52.376;16.744;2023-07-02T10:30:12;21.7;38.8
67893;DHT22;54688;52.376;16.744;2023-07-02T10:33:15;21.7;39
67893;DHT22;54688;52.376;16.744;2023-07-02T10:36:19;21.5;39.6
67893;DHT22;54688;52.376;16.744;2023-07-02T10:39:21;21.5;40.4
67893;DHT22;54688;52.376;16.744;2023-07-02T10:45:30;21.4;42
67893;DHT22;54688;52.376;16.744;2023-07-02T10:48:33;21.3;41.9
67893;DHT22;54688;52.376;16.744;2023-07-02T10:51:35;21.3;42.4
67893;DHT22;54688;52.376;16.744;2023-07-02T10:54:38;21.2;42.8
67893;DHT22;54688;52.376;16.744;2023-07-02T10:57:41;21.3;42.3
67893;DHT22;54688;52.376;16.744;2023-07-02T11:00:43;21.3;40.7
67893;DHT22;54688;52.376;16.744;2023-07-02T11:03:54;21.5;41.3
67893;DHT22;54688;52.376;16.744;2023-07-02T11:06:57;21.6;40.7
67893;DHT22;54688;52.376;16.744;2023-07-02T11:09:59;21.7;40.3
67893;DHT22;54688;52.376;16.744;2023-07-02T11:13:09;21.9;39.9
67893;DHT22;54688;52.376;16.744;2023-07-02T11:16:20;22.2;39.3
67893;DHT22;54688;52.376;16.744;2023-07-02T11:19:23;22.3;39.1
67893;DHT22;54688;52.376;16.744;2023-07-02T11:22:30;22.3;38.3
67893;DHT22;54688;52.376;16.744;2023-07-02T11:25:32;22.3;38.4
67893;DHT22;54688;52.376;16.744;2023-07-02T11:28:35;22.3;38.7
67893;DHT22;54688;52.376;16.744;2023-07-02T11:31:36;22.3;38.3
67893;DHT22;54688;52.376;16.744;2023-07-02T11:34:39;22.3;37.9
67893;DHT22;54688;52.376;16.744;2023-07-02T11:37:42;22.2;38
67893;DHT22;54688;52.376;16.744;2023-07-02T11:40:44;22.1;39.1
67893;DHT22;54688;52.376;16.744;2023-07-02T11:46:46;21.8;38.6
67893;DHT22;54688;52.376;16.744;2023-07-02T11:49:49;21.9;38.9
67893;DHT22;54688;52.376;16.744;2023-07-02T11:52:51;22;38.5
67893;DHT22;54688;52.376;16.744;2023-07-02T11:55:53;22.1;37.6
67893;DHT22;54688;52.376;16.744;2023-07-02T11:58:55;22.2;37.7
67893;DHT22;54688;52.376;16.744;2023-07-02T12:01:57;22.2;37.8
67893;DHT22;54688;52.376;16.744;2023-07-02T12:05:00;22.1;37.8
67893;DHT22;54688;52.376;16.744;2023-07-02T12:08:02;22;38.2
67893;DHT22;54688;52.376;16.744;2023-07-02T12:11:05;21.9;38.4
67893;DHT22;54688;52.376;16.744;2023-07-02T12:14:07;21.7;38.8
67893;DHT22;54688;52.376;16.744;2023-07-02T12:20:09;21.6;40
67893;DHT22;54688;52.376;16.744;2023-07-02T12:23:12;21.6;39.8
67893;DHT22;54688;52.376;16.744;2023-07-02T12:26:14;21.7;39.2
67893;DHT22;54688;52.376;16.744;2023-07-02T12:29:17;21.7;38.8
67893;DHT22;54688;52.376;16.744;2023-07-02T12:32:20;21.8;38.2
67893;DHT22;54688;52.376;16.744;2023-07-02T12:35:22;21.7;38.3
67893;DHT22;54688;52.376;16.744;2023-07-02T12:38:24;21.7;38.3
67893;DHT22;54688;52.376;16.744;2023-07-02T12:41:27;21.7;39
67893;DHT22;54688;52.376;16.744;2023-07-02T12:44:29;21.8;39.4
67893;DHT22;54688;52.376;16.744;2023-07-02T12:47:31;22;40.3
67893;DHT22;54688;52.376;16.744;2023-07-02T12:50:33;22;38.5
67893;DHT22;54688;52.376;16.744;2023-07-02T12:53:36;22;39.4
67893;DHT22;54688;52.376;16.744;2023-07-02T12:59:38;22.1;38.8
67893;DHT22;54688;52.376;16.744;2023-07-02T13:02:40;22;39.5
67893;DHT22;54688;52.376;16.744;2023-07-02T13:05:43;21.9;39.9
67893;DHT22;54688;52.376;16.744;2023-07-02T13:08:45;21.7;40.1
67893;DHT22;54688;52.376;16.744;2023-07-02T13:11:48;21.7;38.1
67893;DHT22;54688;52.376;16.744;2023-07-02T13:14:50;21.7;39.3
67893;DHT22;54688;52.376;16.744;2023-07-02T13:17:52;21.7;38.1
67893;DHT22;54688;52.376;16.744;2023-07-02T13:20:55;21.7;38.6
67893;DHT22;54688;52.376;16.744;2023-07-02T13:23:58;21.8;38.4
67893;DHT22;54688;52.376;16.744;2023-07-02T13:27:01;21.8;39.7
67893;DHT22;54688;52.376;16.744;2023-07-02T13:30:05;21.8;37.7
67893;DHT22;54688;52.376;16.744;2023-07-02T13:33:07;21.9;37.8
67893;DHT22;54688;52.376;16.744;2023-07-02T13:36:10;21.9;37.9
67893;DHT22;54688;52.376;16.744;2023-07-02T13:39:12;21.9;37.5
67893;DHT22;54688;52.376;16.744;2023-07-02T13:42:15;21.9;36.1
67893;DHT22;54688;52.376;16.744;2023-07-02T13:45:17;21.8;37.1
67893;DHT22;54688;52.376;16.744;2023-07-02T13:48:19;21.9;36.9
67893;DHT22;54688;52.376;16.744;2023-07-02T13:51:23;21.9;37
67893;DHT22;54688;52.376;16.744;2023-07-02T13:54:25;22.1;36.2
67893;DHT22;54688;52.376;16.744;2023-07-02T13:57:28;22.5;35.8
67893;DHT22;54688;52.376;16.744;2023-07-02T14:00:31;22.7;35.5
67893;DHT22;54688;52.376;16.744;2023-07-02T14:03:33;22.8;35.2
67893;DHT22;54688;52.376;16.744;2023-07-02T14:06:36;22.9;35.4
67893;DHT22;54688;52.376;16.744;2023-07-02T14:09:38;23.2;35.2
67893;DHT22;54688;52.376;16.744;2023-07-02T14:12:41;23.7;34.7
67893;DHT22;54688;52.376;16.744;2023-07-02T14:15:44;23.9;34
67893;DHT22;54688;52.376;16.744;2023-07-02T14:18:46;24.1;32.3
67893;DHT22;54688;52.376;16.744;2023-07-02T14:21:48;24;32.4
67893;DHT22;54688;52.376;16.744;2023-07-02T14:24:49;23.9;31.9
67893;DHT22;54688;52.376;16.744;2023-07-02T14:27:52;23.9;31.8
67893;DHT22;54688;52.376;16.744;2023-07-02T14:30:56;23.9;32.6
67893;DHT22;54688;52.376;16.744;2023-07-02T14:33:58;24;32
67893;DHT22;54688;52.376;16.744;2023-07-02T14:37:01;24.1;32
67893;DHT22;54688;52.376;16.744;2023-07-02T14:40:05;24.3;31.9
67893;DHT22;54688;52.376;16.744;2023-07-02T14:43:08;24.4;31.6
67893;DHT22;54688;52.376;16.744;2023-07-02T14:46:11;24.3;31.7
67893;DHT22;54688;52.376;16.744;2023-07-02T14:49:14;24.4;32.3
67893;DHT22;54688;52.376;16.744;2023-07-02T14:52:15;24.8;32
67893;DHT22;54688;52.376;16.744;2023-07-02T14:55:18;25.1;31
67893;DHT22;54688;52.376;16.744;2023-07-02T14:58:20;25.5;31
67893;DHT22;54688;52.376;16.744;2023-07-02T15:01:23;25.7;30.3
67893;DHT22;54688;52.376;16.744;2023-07-02T15:04:25;25.9;30
67893;DHT22;54688;52.376;16.744;2023-07-02T15:07:26;25.9;30.2
67893;DHT22;54688;52.376;16.744;2023-07-02T15:10:29;25.7;30
67893;DHT22;54688;52.376;16.744;2023-07-02T15:13:31;25.5;30.1
67893;DHT22;54688;52.376;16.744;2023-07-02T15:16:33;25.3;30
67893;DHT22;54688;52.376;16.744;2023-07-02T15:19:36;25.1;30.5
67893;DHT22;54688;52.376;16.744;2023-07-02T15:22:37;25;30.5
67893;DHT22;54688;52.376;16.744;2023-07-02T15:25:40;25.2;30.7
67893;DHT22;54688;52.376;16.744;2023-07-02T15:28:42;25.5;30.2
67893;DHT22;54688;52.376;16.744;2023-07-02T15:31:44;25.8;29.9
67893;DHT22;54688;52.376;16.744;2023-07-02T15:34:46;25.7;29.7
67893;DHT22;54688;52.376;16.744;2023-07-02T15:37:49;25.6;30.6
67893;DHT22;54688;52.376;16.744;2023-07-02T15:41:03;25.5;30.6
67893;DHT22;54688;52.376;16.744;2023-07-02T15:44:07;25.5;30.6
67893;DHT22;54688;52.376;16.744;2023-07-02T15:47:08;25.3;30.6
67893;DHT22;54688;52.376;16.744;2023-07-02T15:50:10;25.1;30.9
67893;DHT22;54688;52.376;16.744;2023-07-02T15:53:13;24.7;31.8
67893;DHT22;54688;52.376;16.744;2023-07-02T15:56:14;24.5;32.9
67893;DHT22;54688;52.376;16.744;2023-07-02T15:59:17;24.4;32.9
67893;DHT22;54688;52.376;16.744;2023-07-02T16:02:19;24.1;33.1
67893;DHT22;54688;52.376;16.744;2023-07-02T16:05:22;23.7;33.4
67893;DHT22;54688;52.376;16.744;2023-07-02T16:08:24;23.3;34.1
67893;DHT22;54688;52.376;16.744;2023-07-02T16:11:26;23.1;34.5
67893;DHT22;54688;52.376;16.744;2023-07-02T16:14:28;23.3;34.9
67893;DHT22;54688;52.376;16.744;2023-07-02T16:17:30;23.7;33.9
67893;DHT22;54688;52.376;16.744;2023-07-02T16:20:33;23.9;32.7
67893;DHT22;54688;52.376;16.744;2023-07-02T16:23:35;24;32.6
67893;DHT22;54688;52.376;16.744;2023-07-02T16:26:38;24;31.6
67893;DHT22;54688;52.376;16.744;2023-07-02T16:29:40;23.9;30.4
67893;DHT22;54688;52.376;16.744;2023-07-02T16:32:43;24;30
67893;DHT22;54688;52.376;16.744;2023-07-02T16:35:45;24;29.7
67893;DHT22;54688;52.376;16.744;2023-07-02T16:38:48;24;29.8
67893;DHT22;54688;52.376;16.744;2023-07-02T16:41:50;24.2;29.5
67893;DHT22;54688;52.376;16.744;2023-07-02T16:44:52;24.5;29.4
67893;DHT22;54688;52.376;16.744;2023-07-02T16:47:55;24.8;29
67893;DHT22;54688;52.376;16.744;2023-07-02T16:50:58;25;27.7
67893;DHT22;54688;52.376;16.744;2023-07-02T16:54:00;25.1;27.5
67893;DHT22;54688;52.376;16.744;2023-07-02T16:57:02;25.1;27.2
67893;DHT22;54688;52.376;16.744;2023-07-02T17:00:05;25.1;27.2
67893;DHT22;54688;52.376;16.744;2023-07-02T17:03:08;25;27.2
67893;DHT22;54688;52.376;16.744;2023-07-02T17:06:10;24.8;27.1
67893;DHT22;54688;52.376;16.744;2023-07-02T17:09:17;24.5;27.5
67893;DHT22;54688;52.376;16.744;2023-07-02T17:12:20;24.4;27.5
67893;DHT22;54688;52.376;16.744;2023-07-02T17:15:22;24.3;27.7
67893;DHT22;54688;52.376;16.744;2023-07-02T17:18:25;24.2;27.8
67893;DHT22;54688;52.376;16.744;2023-07-02T17:21:26;23.9;27.6
67893;DHT22;54688;52.376;16.744;2023-07-02T17:27:29;23.3;28.7
67893;DHT22;54688;52.376;16.744;2023-07-02T17:30:32;23.1;29.3
67893;DHT22;54688;52.376;16.744;2023-07-02T17:33:34;23.1;29.4
67893;DHT22;54688;52.376;16.744;2023-07-02T17:36:36;23.2;28.7
67893;DHT22;54688;52.376;16.744;2023-07-02T17:39:38;23.3;29.5
67893;DHT22;54688;52.376;16.744;2023-07-02T17:42:41;23.5;29.4
67893;DHT22;54688;52.376;16.744;2023-07-02T17:45:51;23.7;28.4
67893;DHT22;54688;52.376;16.744;2023-07-02T17:48:54;23.7;28.4
67893;DHT22;54688;52.376;16.744;2023-07-02T17:51:56;23.5;28.3
67893;DHT22;54688;52.376;16.744;2023-07-02T17:54:58;23.4;28.3
67893;DHT22;54688;52.376;16.744;2023-07-02T17:58:01;23.3;28.4
67893;DHT22;54688;52.376;16.744;2023-07-02T18:01:03;23.2;28.7
67893;DHT22;54688;52.376;16.744;2023-07-02T18:04:06;23.2;28.9
67893;DHT22;54688;52.376;16.744;2023-07-02T18:07:09;23.1;28.8
67893;DHT22;54688;52.376;16.744;2023-07-02T18:10:14;23.1;28.7
67893;DHT22;54688;52.376;16.744;2023-07-02T18:13:16;22.9;28.5
67893;DHT22;54688;52.376;16.744;2023-07-02T18:16:19;22.7;28.8
67893;DHT22;54688;52.376;16.744;2023-07-02T18:19:21;22.4;29.1
67893;DHT22;54688;52.376;16.744;2023-07-02T18:22:23;22.3;29.5
67893;DHT22;54688;52.376;16.744;2023-07-02T18:25:25;22.1;29.5
67893;DHT22;54688;52.376;16.744;2023-07-02T18:28:29;22;29.9
67893;DHT22;54688;52.376;16.744;2023-07-02T18:31:31;21.8;30
67893;DHT22;54688;52.376;16.744;2023-07-02T18:34:34;21.7;30.3
67893;DHT22;54688;52.376;16.744;2023-07-02T18:37:38;21.5;30.3
67893;DHT22;54688;52.376;16.744;2023-07-02T18:40:40;21.4;30.7
67893;DHT22;54688;52.376;16.744;2023-07-02T18:43:43;21.2;30.8
67893;DHT22;54688;52.376;16.744;2023-07-02T18:46:45;21.1;30.4
67893;DHT22;54688;52.376;16.744;2023-07-02T18:49:48;20.9;31.4
67893;DHT22;54688;52.376;16.744;2023-07-02T18:52:49;20.7;31.8
67893;DHT22;54688;52.376;16.744;2023-07-02T18:55:55;20.5;32.2
67893;DHT22;54688;52.376;16.744;2023-07-02T18:58:58;20.3;32.7
67893;DHT22;54688;52.376;16.744;2023-07-02T19:02:00;20.1;32.8
67893;DHT22;54688;52.376;16.744;2023-07-02T19:05:03;20;32.4
67893;DHT22;54688;52.376;16.744;2023-07-02T19:08:07;19.8;33.5
67893;DHT22;54688;52.376;16.744;2023-07-02T19:11:09;19.6;34
67893;DHT22;54688;52.376;16.744;2023-07-02T19:14:11;19.5;34.5
67893;DHT22;54688;52.376;16.744;2023-07-02T19:17:13;19.4;34.9
67893;DHT22;54688;52.376;16.744;2023-07-02T19:20:17;19.2;35.6
67893;DHT22;54688;52.376;16.744;2023-07-02T19:23:19;19.1;36
67893;DHT22;54688;52.376;16.744;2023-07-02T19:26:21;18.9;36.3
67893;DHT22;54688;52.376;16.744;2023-07-02T19:29:22;18.8;36.9
67893;DHT22;54688;52.376;16.744;2023-07-02T19:32:25;18.6;37.4
67893;DHT22;54688;52.376;16.744;2023-07-02T19:35:27;18.5;37.7
67893;DHT22;54688;52.376;16.744;2023-07-02T19:38:30;18.4;38.3
67893;DHT22;54688;52.376;16.744;2023-07-02T19:41:31;18.2;38.7
67893;DHT22;54688;52.376;16.744;2023-07-02T19:44:34;18.1;39.1
67893;DHT22;54688;52.376;16.744;2023-07-02T19:47:36;18.1;39.5
67893;DHT22;54688;52.376;16.744;2023-07-02T19:50:39;17.9;39.9
67893;DHT22;54688;52.376;16.744;2023-07-02T19:53:41;17.8;40.3
67893;DHT22;54688;52.376;16.744;2023-07-02T19:56:43;17.6;40.5
67893;DHT22;54688;52.376;16.744;2023-07-02T19:59:46;17.5;41
67893;DHT22;54688;52.376;16.744;2023-07-02T20:02:49;17.4;41
67893;DHT22;54688;52.376;16.744;2023-07-02T20:05:53;17.3;41.6
67893;DHT22;54688;52.376;16.744;2023-07-02T20:08:55;17.2;42.4
67893;DHT22;54688;52.376;16.744;2023-07-02T20:11:57;17.1;42.5
67893;DHT22;54688;52.376;16.744;2023-07-02T20:14:59;16.9;42.8
67893;DHT22;54688;52.376;16.744;2023-07-02T20:18:02;16.8;43.1
67893;DHT22;54688;52.376;16.744;2023-07-02T20:21:05;16.7;43.6
67893;DHT22;54688;52.376;16.744;2023-07-02T20:24:08;16.6;43.6
67893;DHT22;54688;52.376;16.744;2023-07-02T20:27:10;16.5;43.9
67893;DHT22;54688;52.376;16.744;2023-07-02T20:30:13;16.4;44.2
67893;DHT22;54688;52.376;16.744;2023-07-02T20:33:15;16.4;44.2
67893;DHT22;54688;52.376;16.744;2023-07-02T20:36:18;16.3;44.4
67893;DHT22;54688;52.376;16.744;2023-07-02T20:39:20;16.2;45.9
67893;DHT22;54688;52.376;16.744;2023-07-02T20:42:22;16.1;44.9
67893;DHT22;54688;52.376;16.744;2023-07-02T20:45:24;16.1;45.4
67893;DHT22;54688;52.376;16.744;2023-07-02T20:48:26;16;45.2
67893;DHT22;54688;52.376;16.744;2023-07-02T20:51:28;15.9;45.8
67893;DHT22;54688;52.376;16.744;2023-07-02T20:54:30;15.8;46
67893;DHT22;54688;52.376;16.744;2023-07-02T20:57:32;15.7;46.3
67893;DHT22;54688;52.376;16.744;2023-07-02T21:00:34;15.7;46.7
67893;DHT22;54688;52.376;16.744;2023-07-02T21:03:36;15.6;47.5
67893;DHT22;54688;52.376;16.744;2023-07-02T21:06:40;15.5;47.4
67893;DHT22;54688;52.376;16.744;2023-07-02T21:09:42;15.5;48.2
67893;DHT22;54688;52.376;16.744;2023-07-02T21:12:44;15.4;47.7
67893;DHT22;54688;52.376;16.744;2023-07-02T21:15:52;15.3;48.3
67893;DHT22;54688;52.376;16.744;2023-07-02T21:18:54;15.2;48.5
67893;DHT22;54688;52.376;16.744;2023-07-02T21:21:56;15.1;48.6
67893;DHT22;54688;52.376;16.744;2023-07-02T21:24:57;15;49.1
67893;DHT22;54688;52.376;16.744;2023-07-02T21:28:00;14.9;49.4
67893;DHT22;54688;52.376;16.744;2023-07-02T21:31:02;14.8;49.9
67893;DHT22;54688;52.376;16.744;2023-07-02T21:34:04;14.7;50.3
67893;DHT22;54688;52.376;16.744;2023-07-02T21:37:06;14.6;50.8
67893;DHT22;54688;52.376;16.744;2023-07-02T21:40:09;14.5;51.8
67893;DHT22;54688;52.376;16.744;2023-07-02T21:43:11;14.3;52.1
67893;DHT22;54688;52.376;16.744;2023-07-02T21:46:13;14.2;52.8
67893;DHT22;54688;52.376;16.744;2023-07-02T21:52:16;14.1;53.3
67893;DHT22;54688;52.376;16.744;2023-07-02T21:55:19;14;53.5
67893;DHT22;54688;52.376;16.744;2023-07-02T21:58:21;13.9;54
67893;DHT22;54688;52.376;16.744;2023-07-02T22:01:24;13.8;53.6
67893;DHT22;54688;52.376;16.744;2023-07-02T22:04:26;13.8;53.8
67893;DHT22;54688;52.376;16.744;2023-07-02T22:07:28;13.7;53.8
67893;DHT22;54688;52.376;16.744;2023-07-02T22:10:30;13.7;54.2
67893;DHT22;54688;52.376;16.744;2023-07-02T22:13:32;13.6;54.5
67893;DHT22;54688;52.376;16.744;2023-07-02T22:16:35;13.5;54
67893;DHT22;54688;52.376;16.744;2023-07-02T22:19:37;13.5;54
67893;DHT22;54688;52.376;16.744;2023-07-02T22:22:39;13.5;54.4
67893;DHT22;54688;52.376;16.744;2023-07-02T22:25:43;13.4;54.8
67893;DHT22;54688;52.376;16.744;2023-07-02T22:28:45;13.3;54.5
67893;DHT22;54688;52.376;16.744;2023-07-02T22:31:47;13.3;55
67893;DHT22;54688;52.376;16.744;2023-07-02T22:34:49;13.2;55.2
67893;DHT22;54688;52.376;16.744;2023-07-02T22:37:51;13.1;55.5
67893;DHT22;54688;52.376;16.744;2023-07-02T22:40:53;13;56.3
67893;DHT22;54688;52.376;16.744;2023-07-02T22:43:55;12.9;56.6
67893;DHT22;54688;52.376;16.744;2023-07-02T22:46:57;12.8;57.3
67893;DHT22;54688;52.376;16.744;2023-07-02T22:49:59;12.8;57.3
67893;DHT22;54688;52.376;16.744;2023-07-02T22:53:01;12.7;57.6
67893;DHT22;54688;52.376;16.744;2023-07-02T22:56:10;12.6;57.8
67893;DHT22;54688;52.376;16.744;2023-07-02T22:59:14;12.6;58.1
67893;DHT22;54688;52.376;16.744;2023-07-02T23:02:16;12.5;58.1
67893;DHT22;54688;52.376;16.744;2023-07-02T23:05:18;12.5;58.2
67893;DHT22;54688;52.376;16.744;2023-07-02T23:08:21;12.5;58.4
67893;DHT22;54688;52.376;16.744;2023-07-02T23:11:23;12.4;58.7
67893;DHT22;54688;52.376;16.744;2023-07-02T23:14:26;12.4;58.6
67893;DHT22;54688;52.376;16.744;2023-07-02T23:17:27;12.3;58.9
67893;DHT22;54688;52.376;16.744;2023-07-02T23:20:30;12.3;59
67893;DHT22;54688;52.376;16.744;2023-07-02T23:23:32;12.3;59.2
67893;DHT22;54688;52.376;16.744;2023-07-02T23:26:35;12.3;59.4
67893;DHT22;54688;52.376;16.744;2023-07-02T23:29:37;12.3;59.4
67893;DHT22;54688;52.376;16.744;2023-07-02T23:32:38;12.3;59.1
67893;DHT22;54688;52.376;16.744;2023-07-02T23:35:41;12.2;59
67893;DHT22;54688;52.376;16.744;2023-07-02T23:38:42;12.2;59.5
67893;DHT22;54688;52.376;16.744;2023-07-02T23:44:43;12.1;60.2
67893;DHT22;54688;52.376;16.744;2023-07-02T23:47:45;12;60
67893;DHT22;54688;52.376;16.744;2023-07-02T23:50:48;12;60.2
67893;DHT22;54688;52.376;16.744;2023-07-02T23:53:50;11.9;60.7
67893;DHT22;54688;52.376;16.744;2023-07-02T23:56:51;11.9;61.2
67893;DHT22;54688;52.376;16.744;2023-07-02T23:59:53;11.9;61.5
